METAR Data
IDs: Format: Raw Decoded Include TAF

Data at: 0920 UTC 26 Jan 2020

METAR for:KGDP (Guadalupe Pass, TX, US)
Text:KGDP 260851Z AUTO 24008KT 10SM CLR 07/M05 A3014 RMK AO2 SLP167 T00671050 55005
Temperature: 6.7°C ( 44°F)
Dewpoint: -5.0°C ( 23°F) [RH = 43%]
Pressure (altimeter):30.14 inches Hg (1020.7 mb) [Sea level pressure: 1016.7 mb]
Winds:from the WSW (240 degrees) at 9 MPH (8 knots; 4.1 m/s)
Visibility:10 or more sm (16+ km)
Ceiling:at least 12,000 feet AGL
Clouds:sky clear below 12,000 feet AGL
QC Flag:automated observation with no human augmentation
Text:KGDP 260751Z AUTO 24008KT 10SM CLR 06/M05 A3013 RMK AO2 SLP167 T00611050
Temperature: 6.1°C ( 43°F)
Dewpoint: -5.0°C ( 23°F) [RH = 45%]
Pressure (altimeter):30.13 inches Hg (1020.4 mb) [Sea level pressure: 1016.7 mb]
Winds:from the WSW (240 degrees) at 9 MPH (8 knots; 4.1 m/s)
Visibility:10 or more sm (16+ km)
Ceiling:at least 12,000 feet AGL
Clouds:sky clear below 12,000 feet AGL
QC Flag:automated observation with no human augmentation
Text:KGDP 260651Z AUTO 24010KT 10SM CLR 08/M06 A3014 RMK AO2 SLP169 T00781056 401610033
Temperature: 7.8°C ( 46°F)
Dewpoint: -5.6°C ( 22°F) [RH = 38%]
Pressure (altimeter):30.14 inches Hg (1020.7 mb) [Sea level pressure: 1016.9 mb]
Winds:from the WSW (240 degrees) at 12 MPH (10 knots; 5.1 m/s)
Visibility:10 or more sm (16+ km)
Ceiling:at least 12,000 feet AGL
Clouds:sky clear below 12,000 feet AGL
QC Flag:automated observation with no human augmentation
Text:KGDP 260551Z AUTO 23007KT 10SM CLR 09/M05 A3015 RMK AO2 SLP180 T00891050 10122 20083 52006
Temperature: 8.9°C ( 48°F)
Dewpoint: -5.0°C ( 23°F) [RH = 37%]
Pressure (altimeter):30.15 inches Hg (1021.1 mb) [Sea level pressure: 1018.0 mb]
Winds:from the SW (230 degrees) at 8 MPH (7 knots; 3.6 m/s)
Visibility:10 or more sm (16+ km)
Ceiling:at least 12,000 feet AGL
Clouds:sky clear below 12,000 feet AGL
QC Flag:automated observation with no human augmentation
Text:KGDP 260451Z AUTO 24005KT 10SM CLR 09/M05 A3015 RMK AO2 SLP185 T00891050
Temperature: 8.9°C ( 48°F)
Dewpoint: -5.0°C ( 23°F) [RH = 37%]
Pressure (altimeter):30.15 inches Hg (1021.1 mb) [Sea level pressure: 1018.5 mb]
Winds:from the WSW (240 degrees) at 6 MPH (5 knots; 2.6 m/s)
Visibility:10 or more sm (16+ km)
Ceiling:at least 12,000 feet AGL
Clouds:sky clear below 12,000 feet AGL
QC Flag:automated observation with no human augmentation
Text:KGDP 260351Z AUTO 24011KT 10SM CLR 09/M05 A3014 RMK AO2 SLP181 T00941050
Temperature: 9.4°C ( 49°F)
Dewpoint: -5.0°C ( 23°F) [RH = 36%]
Pressure (altimeter):30.14 inches Hg (1020.7 mb) [Sea level pressure: 1018.1 mb]
Winds:from the WSW (240 degrees) at 13 MPH (11 knots; 5.7 m/s)
Visibility:10 or more sm (16+ km)
Ceiling:at least 12,000 feet AGL
Clouds:sky clear below 12,000 feet AGL
QC Flag:automated observation with no human augmentation
Text:KGDP 260251Z AUTO 24011G19KT 10SM CLR 09/M06 A3014 RMK AO2 SLP182 T00941056 51025
Temperature: 9.4°C ( 49°F)
Dewpoint: -5.6°C ( 22°F) [RH = 34%]
Pressure (altimeter):30.14 inches Hg (1020.7 mb) [Sea level pressure: 1018.2 mb]
Winds:from the WSW (240 degrees) at 13 MPH (11 knots; 5.7 m/s) gusting to 22 MPH (19 knots; 9.8 m/s)
Visibility:10 or more sm (16+ km)
Ceiling:at least 12,000 feet AGL
Clouds:sky clear below 12,000 feet AGL
QC Flag:automated observation with no human augmentation
Text:KGDP 260151Z AUTO 27016KT 10SM CLR 11/M06 A3012 RMK AO2 SLP173 T01061056
Temperature: 10.6°C ( 51°F)
Dewpoint: -5.6°C ( 22°F) [RH = 32%]
Pressure (altimeter):30.12 inches Hg (1020.1 mb) [Sea level pressure: 1017.3 mb]
Winds:from the W (270 degrees) at 18 MPH (16 knots; 8.2 m/s)
Visibility:10 or more sm (16+ km)
Ceiling:at least 12,000 feet AGL
Clouds:sky clear below 12,000 feet AGL
QC Flag:automated observation with no human augmentation
Text:KGDP 260051Z AUTO 27007G19KT 240V310 10SM CLR 11/M07 A3009 RMK AO2 PK WND 27030/0009 SLP164 T01061067
Temperature: 10.6°C ( 51°F)
Dewpoint: -6.7°C ( 20°F) [RH = 29%]
Pressure (altimeter):30.09 inches Hg (1019.0 mb) [Sea level pressure: 1016.4 mb]
Winds:from the W (270 degrees) at 8 MPH (7 knots; 3.6 m/s) gusting to 22 MPH (19 knots; 9.8 m/s)
Visibility:10 or more sm (16+ km)
Ceiling:at least 12,000 feet AGL
Clouds:sky clear below 12,000 feet AGL
QC Flag:automated observation with no human augmentation
Text:KGDP 252351Z AUTO 26020G27KT 10SM CLR 13/M07 A3005 RMK AO2 PK WND 26036/2252 SLP142 T01281072 10161 20100 55000
Temperature: 12.8°C ( 55°F)
Dewpoint: -7.2°C ( 19°F) [RH = 24%]
Pressure (altimeter):30.05 inches Hg (1017.7 mb) [Sea level pressure: 1014.2 mb]
Winds:from the W (260 degrees) at 23 MPH (20 knots; 10.3 m/s) gusting to 31 MPH (27 knots; 13.9 m/s)
Visibility:10 or more sm (16+ km)
Ceiling:at least 12,000 feet AGL
Clouds:sky clear below 12,000 feet AGL
QC Flag:automated observation with no human augmentation
Text:KGDP 252251Z AUTO 25030G37KT 10SM CLR 14/M07 A3002 RMK AO2 PK WND 26037/2251 SLP129 T01441067
Temperature: 14.4°C ( 58°F)
Dewpoint: -6.7°C ( 20°F) [RH = 23%]
Pressure (altimeter):30.02 inches Hg (1016.7 mb) [Sea level pressure: 1012.9 mb]
Winds:from the WSW (250 degrees) at 34 MPH (30 knots; 15.4 m/s) gusting to 43 MPH (37 knots; 19.0 m/s)
Visibility:10 or more sm (16+ km)
Ceiling:at least 12,000 feet AGL
Clouds:sky clear below 12,000 feet AGL
QC Flag:automated observation with no human augmentation
Text:KGDP 252151Z AUTO 24022G29KT 10SM CLR 15/M06 A3004 RMK AO2 PK WND 26034/2055 SLP134 T01501056
Temperature: 15.0°C ( 59°F)
Dewpoint: -5.6°C ( 22°F) [RH = 24%]
Pressure (altimeter):30.04 inches Hg (1017.4 mb) [Sea level pressure: 1013.4 mb]
Winds:from the WSW (240 degrees) at 25 MPH (22 knots; 11.3 m/s) gusting to 33 MPH (29 knots; 14.9 m/s)
Visibility:10 or more sm (16+ km)
Ceiling:at least 12,000 feet AGL
Clouds:sky clear below 12,000 feet AGL
QC Flag:automated observation with no human augmentation
Text:KGDP 252051Z AUTO 26024G30KT 10SM CLR 16/M04 A3005 RMK AO2 PK WND 25032/2001 SLP140 T01561044 56019
Temperature: 15.6°C ( 60°F)
Dewpoint: -4.4°C ( 24°F) [RH = 25%]
Pressure (altimeter):30.05 inches Hg (1017.7 mb) [Sea level pressure: 1014.0 mb]
Winds:from the W (260 degrees) at 28 MPH (24 knots; 12.3 m/s) gusting to 34 MPH (30 knots; 15.4 m/s)
Visibility:10 or more sm (16+ km)
Ceiling:at least 12,000 feet AGL
Clouds:sky clear below 12,000 feet AGL
QC Flag:automated observation with no human augmentation
Text:KGDP 251951Z AUTO 25023G33KT 10SM CLR 14/M03 A3007 RMK AO2 PK WND 25033/1911 SLP143 T01441028
Temperature: 14.4°C ( 58°F)
Dewpoint: -2.8°C ( 27°F) [RH = 30%]
Pressure (altimeter):30.07 inches Hg (1018.4 mb) [Sea level pressure: 1014.3 mb]
Winds:from the WSW (250 degrees) at 26 MPH (23 knots; 11.8 m/s) gusting to 38 MPH (33 knots; 17.0 m/s)
Visibility:10 or more sm (16+ km)
Ceiling:at least 12,000 feet AGL
Clouds:sky clear below 12,000 feet AGL
QC Flag:automated observation with no human augmentation
Text:KGDP 251851Z AUTO 24024KT 10SM CLR 14/M03 A3008 RMK AO2 PK WND 25031/1851 SLP149 T01391028
Temperature: 13.9°C ( 57°F)
Dewpoint: -2.8°C ( 27°F) [RH = 31%]
Pressure (altimeter):30.08 inches Hg (1018.7 mb) [Sea level pressure: 1014.9 mb]
Winds:from the WSW (240 degrees) at 28 MPH (24 knots; 12.3 m/s)
Visibility:10 or more sm (16+ km)
Ceiling:at least 12,000 feet AGL
Clouds:sky clear below 12,000 feet AGL
QC Flag:automated observation with no human augmentation
Text:KGDP 251751Z AUTO 23011KT 10SM CLR 09/M03 A3012 RMK AO2 SLP171 T00941028 10094 20033 53010
Temperature: 9.4°C ( 49°F)
Dewpoint: -2.8°C ( 27°F) [RH = 42%]
Pressure (altimeter):30.12 inches Hg (1020.1 mb) [Sea level pressure: 1017.1 mb]
Winds:from the SW (230 degrees) at 13 MPH (11 knots; 5.7 m/s)
Visibility:10 or more sm (16+ km)
Ceiling:at least 12,000 feet AGL
Clouds:sky clear below 12,000 feet AGL
QC Flag:automated observation with no human augmentation
Text:KGDP 251651Z AUTO 22011KT 9SM CLR 06/M03 A3010 RMK AO2 SLP169 T00611033
Temperature: 6.1°C ( 43°F)
Dewpoint: -3.3°C ( 26°F) [RH = 51%]
Pressure (altimeter):30.10 inches Hg (1019.4 mb) [Sea level pressure: 1016.9 mb]
Winds:from the SW (220 degrees) at 13 MPH (11 knots; 5.7 m/s)
Visibility: 9 sm ( 14 km)
Ceiling:at least 12,000 feet AGL
Clouds:sky clear below 12,000 feet AGL
QC Flag:automated observation with no human augmentation
Text:KGDP 251551Z AUTO 20011KT 9SM CLR 06/M03 A3009 RMK AO2 SLP164 T00561033
Temperature: 5.6°C ( 42°F)
Dewpoint: -3.3°C ( 26°F) [RH = 53%]
Pressure (altimeter):30.09 inches Hg (1019.0 mb) [Sea level pressure: 1016.4 mb]
Winds:from the SSW (200 degrees) at 13 MPH (11 knots; 5.7 m/s)
Visibility: 9 sm ( 14 km)
Ceiling:at least 12,000 feet AGL
Clouds:sky clear below 12,000 feet AGL
QC Flag:automated observation with no human augmentation
Text:KGDP 251451Z AUTO 20010KT 9SM CLR 04/M04 A3008 RMK AO2 SLP163 T00441039 51017
Temperature: 4.4°C ( 40°F)
Dewpoint: -3.9°C ( 25°F) [RH = 55%]
Pressure (altimeter):30.08 inches Hg (1018.7 mb) [Sea level pressure: 1016.3 mb]
Winds:from the SSW (200 degrees) at 12 MPH (10 knots; 5.1 m/s)
Visibility: 9 sm ( 14 km)
Ceiling:at least 12,000 feet AGL
Clouds:sky clear below 12,000 feet AGL
QC Flag:automated observation with no human augmentation
Text:KGDP 251351Z AUTO 23011G17KT 10SM CLR 04/M04 A3007 RMK AO2 SLP159 T00441039
Temperature: 4.4°C ( 40°F)
Dewpoint: -3.9°C ( 25°F) [RH = 55%]
Pressure (altimeter):30.07 inches Hg (1018.4 mb) [Sea level pressure: 1015.9 mb]
Winds:from the SW (230 degrees) at 13 MPH (11 knots; 5.7 m/s) gusting to 20 MPH (17 knots; 8.7 m/s)
Visibility:10 or more sm (16+ km)
Ceiling:at least 12,000 feet AGL
Clouds:sky clear below 12,000 feet AGL
QC Flag:automated observation with no human augmentation
Text:KGDP 251251Z AUTO 23010KT 10SM CLR 04/M04 A3005 RMK AO2 SLP151 T00441039
Temperature: 4.4°C ( 40°F)
Dewpoint: -3.9°C ( 25°F) [RH = 55%]
Pressure (altimeter):30.05 inches Hg (1017.7 mb) [Sea level pressure: 1015.1 mb]
Winds:from the SW (230 degrees) at 12 MPH (10 knots; 5.1 m/s)
Visibility:10 or more sm (16+ km)
Ceiling:at least 12,000 feet AGL
Clouds:sky clear below 12,000 feet AGL
QC Flag:automated observation with no human augmentation
Text:KGDP 251151Z AUTO 25016G19KT 10SM CLR 06/M04 A3002 RMK AO2 SLP133 T00561039 10072 20039 58005
Temperature: 5.6°C ( 42°F)
Dewpoint: -3.9°C ( 25°F) [RH = 50%]
Pressure (altimeter):30.02 inches Hg (1016.7 mb) [Sea level pressure: 1013.3 mb]
Winds:from the WSW (250 degrees) at 18 MPH (16 knots; 8.2 m/s) gusting to 22 MPH (19 knots; 9.8 m/s)
Visibility:10 or more sm (16+ km)
Ceiling:at least 12,000 feet AGL
Clouds:sky clear below 12,000 feet AGL
QC Flag:automated observation with no human augmentation
Text:KGDP 251051Z AUTO 24014KT 10SM CLR 05/M04 A3004 RMK AO2 SLP139 T00501044
Temperature: 5.0°C ( 41°F)
Dewpoint: -4.4°C ( 24°F) [RH = 51%]
Pressure (altimeter):30.04 inches Hg (1017.4 mb) [Sea level pressure: 1013.9 mb]
Winds:from the WSW (240 degrees) at 16 MPH (14 knots; 7.2 m/s)
Visibility:10 or more sm (16+ km)
Ceiling:at least 12,000 feet AGL
Clouds:sky clear below 12,000 feet AGL
QC Flag:automated observation with no human augmentation
Text:KGDP 250951Z AUTO 23012KT 10SM CLR 06/M04 A3004 RMK AO2 SLP138 T00561044
Temperature: 5.6°C ( 42°F)
Dewpoint: -4.4°C ( 24°F) [RH = 48%]
Pressure (altimeter):30.04 inches Hg (1017.4 mb) [Sea level pressure: 1013.8 mb]
Winds:from the SW (230 degrees) at 14 MPH (12 knots; 6.2 m/s)
Visibility:10 or more sm (16+ km)
Ceiling:at least 12,000 feet AGL
Clouds:sky clear below 12,000 feet AGL
QC Flag:automated observation with no human augmentation
Text:KGDP 250851Z AUTO 22016KT 10SM CLR 04/M04 A3004 RMK AO2 SLP141 T00441044 56007
Temperature: 4.4°C ( 40°F)
Dewpoint: -4.4°C ( 24°F) [RH = 53%]
Pressure (altimeter):30.04 inches Hg (1017.4 mb) [Sea level pressure: 1014.1 mb]
Winds:from the SW (220 degrees) at 18 MPH (16 knots; 8.2 m/s)
Visibility:10 or more sm (16+ km)
Ceiling:at least 12,000 feet AGL
Clouds:sky clear below 12,000 feet AGL
QC Flag:automated observation with no human augmentation
Text:KGDP 250751Z AUTO 24014KT 10SM CLR 06/M04 A3004 RMK AO2 SLP141 T00611044
Temperature: 6.1°C ( 43°F)
Dewpoint: -4.4°C ( 24°F) [RH = 47%]
Pressure (altimeter):30.04 inches Hg (1017.4 mb) [Sea level pressure: 1014.1 mb]
Winds:from the WSW (240 degrees) at 16 MPH (14 knots; 7.2 m/s)
Visibility:10 or more sm (16+ km)
Ceiling:at least 12,000 feet AGL
Clouds:sky clear below 12,000 feet AGL
QC Flag:automated observation with no human augmentation
Text:KGDP 250651Z AUTO 23013KT 10SM CLR 07/M04 A3005 RMK AO2 SLP150 T00671044 401440033
Temperature: 6.7°C ( 44°F)
Dewpoint: -4.4°C ( 24°F) [RH = 45%]
Pressure (altimeter):30.05 inches Hg (1017.7 mb) [Sea level pressure: 1015.0 mb]
Winds:from the SW (230 degrees) at 15 MPH (13 knots; 6.7 m/s)
Visibility:10 or more sm (16+ km)
Ceiling:at least 12,000 feet AGL
Clouds:sky clear below 12,000 feet AGL
QC Flag:automated observation with no human augmentation
Text:KGDP 250551Z AUTO 24009KT 10SM CLR 07/M05 A3006 RMK AO2 SLP155 T00721050 10128 20072 58002
Temperature: 7.2°C ( 45°F)
Dewpoint: -5.0°C ( 23°F) [RH = 41%]
Pressure (altimeter):30.06 inches Hg (1018.0 mb) [Sea level pressure: 1015.5 mb]
Winds:from the WSW (240 degrees) at 10 MPH (9 knots; 4.6 m/s)
Visibility:10 or more sm (16+ km)
Ceiling:at least 12,000 feet AGL
Clouds:sky clear below 12,000 feet AGL
QC Flag:automated observation with no human augmentation
Text:KGDP 250451Z AUTO 23007KT 10SM CLR 09/M05 A3007 RMK AO2 SLP159 T00891050
Temperature: 8.9°C ( 48°F)
Dewpoint: -5.0°C ( 23°F) [RH = 37%]
Pressure (altimeter):30.07 inches Hg (1018.4 mb) [Sea level pressure: 1015.9 mb]
Winds:from the SW (230 degrees) at 8 MPH (7 knots; 3.6 m/s)
Visibility:10 or more sm (16+ km)
Ceiling:at least 12,000 feet AGL
Clouds:sky clear below 12,000 feet AGL
QC Flag:automated observation with no human augmentation
Text:KGDP 250351Z AUTO 20007KT 10SM CLR 09/M05 A3007 RMK AO2 SLP159 T00941050
Temperature: 9.4°C ( 49°F)
Dewpoint: -5.0°C ( 23°F) [RH = 36%]
Pressure (altimeter):30.07 inches Hg (1018.4 mb) [Sea level pressure: 1015.9 mb]
Winds:from the SSW (200 degrees) at 8 MPH (7 knots; 3.6 m/s)
Visibility:10 or more sm (16+ km)
Ceiling:at least 12,000 feet AGL
Clouds:sky clear below 12,000 feet AGL
QC Flag:automated observation with no human augmentation
Text:KGDP 250251Z AUTO 00000KT 10SM CLR 10/M05 A3007 RMK AO2 SLP160 T01001050 53003
Temperature: 10.0°C ( 50°F)
Dewpoint: -5.0°C ( 23°F) [RH = 34%]
Pressure (altimeter):30.07 inches Hg (1018.4 mb) [Sea level pressure: 1016.0 mb]
Winds:calm
Visibility:10 or more sm (16+ km)
Ceiling:at least 12,000 feet AGL
Clouds:sky clear below 12,000 feet AGL
QC Flag:automated observation with no human augmentation
Text:KGDP 250151Z AUTO 26008KT 10SM CLR 10/M06 A3007 RMK AO2 SLP160 T01001056
Temperature: 10.0°C ( 50°F)
Dewpoint: -5.6°C ( 22°F) [RH = 33%]
Pressure (altimeter):30.07 inches Hg (1018.4 mb) [Sea level pressure: 1016.0 mb]
Winds:from the W (260 degrees) at 9 MPH (8 knots; 4.1 m/s)
Visibility:10 or more sm (16+ km)
Ceiling:at least 12,000 feet AGL
Clouds:sky clear below 12,000 feet AGL
QC Flag:automated observation with no human augmentation
Text:KGDP 250051Z AUTO 26006KT 10SM CLR 10/M06 A3006 RMK AO2 SLP156 T01001056
Temperature: 10.0°C ( 50°F)
Dewpoint: -5.6°C ( 22°F) [RH = 33%]
Pressure (altimeter):30.06 inches Hg (1018.0 mb) [Sea level pressure: 1015.6 mb]
Winds:from the W (260 degrees) at 7 MPH (6 knots; 3.1 m/s)
Visibility:10 or more sm (16+ km)
Ceiling:at least 12,000 feet AGL
Clouds:sky clear below 12,000 feet AGL
QC Flag:automated observation with no human augmentation
Text:KGDP 242351Z AUTO 25011KT 10SM CLR 13/M05 A3006 RMK AO2 SLP152 T01281050 10144 20078 56005
Temperature: 12.8°C ( 55°F)
Dewpoint: -5.0°C ( 23°F) [RH = 29%]
Pressure (altimeter):30.06 inches Hg (1018.0 mb) [Sea level pressure: 1015.2 mb]
Winds:from the WSW (250 degrees) at 13 MPH (11 knots; 5.7 m/s)
Visibility:10 or more sm (16+ km)
Ceiling:at least 12,000 feet AGL
Clouds:sky clear below 12,000 feet AGL
QC Flag:automated observation with no human augmentation
Text:KGDP 242251Z AUTO 24017G22KT 10SM CLR 14/M06 A3006 RMK AO2 SLP150 T01391056
Temperature: 13.9°C ( 57°F)
Dewpoint: -5.6°C ( 22°F) [RH = 25%]
Pressure (altimeter):30.06 inches Hg (1018.0 mb) [Sea level pressure: 1015.0 mb]
Winds:from the WSW (240 degrees) at 20 MPH (17 knots; 8.7 m/s) gusting to 25 MPH (22 knots; 11.3 m/s)
Visibility:10 or more sm (16+ km)
Ceiling:at least 12,000 feet AGL
Clouds:sky clear below 12,000 feet AGL
QC Flag:automated observation with no human augmentation
Text:KGDP 242151Z AUTO 24012G23KT 10SM CLR 14/M06 A3007 RMK AO2 SLP149 T01391061
Temperature: 13.9°C ( 57°F)
Dewpoint: -6.1°C ( 21°F) [RH = 24%]
Pressure (altimeter):30.07 inches Hg (1018.4 mb) [Sea level pressure: 1014.9 mb]
Winds:from the WSW (240 degrees) at 14 MPH (12 knots; 6.2 m/s) gusting to 26 MPH (23 knots; 11.8 m/s)
Visibility:10 or more sm (16+ km)
Ceiling:at least 12,000 feet AGL
Clouds:sky clear below 12,000 feet AGL
QC Flag:automated observation with no human augmentation